Time;durP1;ratioP1;P1;durP2;ratioP2;P2;SDS_P1;SDS_P2;PMS_P1;PMS_P2;Temp;Humidity;BMP_temperature;BMP_pressure;BME280_temperature;BME280_humidity;BME280_pressure;Samples;Min_cycle;Max_cycle;Signal;HPM_P1;HPM_P2
2023/05/30 00:00:31;;;;;;;;;;;19.70;48.00;;;;;;5044268;28;19967;-82
2023/05/30 00:02:57;;;;;;;;;;;19.70;48.00;;;;;;5043255;28;19931;-82
2023/05/30 00:05:27;;;;;;;;;;;19.70;48.10;;;;;;5043921;28;20187;-81
2023/05/30 00:07:53;;;;;;;;;;;19.60;48.00;;;;;;5043568;28;19940;-81
2023/05/30 00:10:18;;;;;;;;;;;19.60;48.00;;;;;;5051976;28;20242;-81
2023/05/30 00:12:46;;;;;;;;;;;19.60;48.00;;;;;;5044016;28;19912;-82
2023/05/30 00:15:16;;;;;;;;;;;19.60;48.00;;;;;;5043775;28;19931;-81
2023/05/30 00:17:41;;;;;;;;;;;19.60;48.00;;;;;;5043657;28;19913;-82
2023/05/30 00:20:08;;;;;;;;;;;19.50;48.00;;;;;;5043302;28;19958;-81
2023/05/30 00:22:34;;;;;;;;;;;19.50;47.90;;;;;;5042820;28;19987;-81
2023/05/30 00:25:04;;;;;;;;;;;19.50;48.00;;;;;;5043212;28;20172;-81
2023/05/30 00:27:30;;;;;;;;;;;19.40;48.00;;;;;;5042307;28;19909;-81
2023/05/30 00:29:56;;;;;;;;;;;19.40;48.00;;;;;;5043735;28;19919;-82
2023/05/30 00:32:21;;;;;;;;;;;19.40;48.00;;;;;;5043108;28;20011;-81
2023/05/30 00:34:49;;;;;;;;;;;19.40;48.00;;;;;;5043672;28;19944;-81
2023/05/30 00:37:15;;;;;;;;;;;19.40;48.00;;;;;;5043336;28;19916;-81
2023/05/30 00:39:41;;;;;;;;;;;19.40;48.00;;;;;;5060583;28;19908;-81
2023/05/30 00:42:07;;;;;;;;;;;19.30;48.00;;;;;;5043415;28;19909;-81
2023/05/30 00:44:32;;;;;;;;;;;19.30;48.10;;;;;;5043107;28;19919;-81
2023/05/30 00:46:58;;;;;;;;;;;19.30;48.10;;;;;;5043244;28;19909;-81
2023/05/30 00:49:24;;;;;;;;;;;19.30;48.10;;;;;;5043052;28;19916;-81
2023/05/30 00:51:50;;;;;;;;;;;19.30;48.20;;;;;;5026839;28;19909;-81
2023/05/30 00:54:17;;;;;;;;;;;19.30;48.20;;;;;;5043306;28;19919;-81
2023/05/30 00:56:43;;;;;;;;;;;19.30;48.20;;;;;;5043396;28;19913;-81
2023/05/30 00:59:24;;;;;;;;;;;19.30;48.30;;;;;;5043293;28;19938;-81
2023/05/30 01:01:50;;;;;;;;;;;19.20;48.20;;;;;;5043587;28;20259;-81
2023/05/30 01:04:15;;;;;;;;;;;19.20;48.20;;;;;;5042317;28;20299;-81
2023/05/30 01:06:41;;;;;;;;;;;19.20;48.20;;;;;;5043425;28;20287;-81
2023/05/30 01:09:07;;;;;;;;;;;19.20;48.20;;;;;;5045234;28;19920;-81
2023/05/30 01:11:45;;;;;;;;;;;19.20;48.20;;;;;;5063104;28;19913;-81
2023/05/30 01:14:10;;;;;;;;;;;19.20;48.30;;;;;;5062283;28;20275;-81
2023/05/30 01:16:43;;;;;;;;;;;19.10;48.20;;;;;;5062811;28;19908;-81
2023/05/30 01:19:34;;;;;;;;;;;19.10;48.30;;;;;;5061370;28;19950;-81
2023/05/30 01:22:10;;;;;;;;;;;19.10;48.30;;;;;;5060342;28;19909;-82
2023/05/30 01:24:47;;;;;;;;;;;19.10;48.30;;;;;;5077691;28;20028;-81
2023/05/30 01:27:35;;;;;;;;;;;19.10;48.30;;;;;;5060943;28;19948;-81
2023/05/30 01:30:02;;;;;;;;;;;19.00;48.30;;;;;;5060704;28;20290;-81
2023/05/30 01:32:28;;;;;;;;;;;19.00;48.30;;;;;;5061097;28;19915;-81
2023/05/30 01:34:57;;;;;;;;;;;19.00;48.40;;;;;;5078204;28;19909;-81
2023/05/30 01:37:23;;;;;;;;;;;19.00;48.40;;;;;;5061500;28;19919;-81
2023/05/30 01:39:48;;;;;;;;;;;19.00;48.40;;;;;;5061708;28;19908;-81
2023/05/30 01:42:14;;;;;;;;;;;19.00;48.40;;;;;;5061699;28;19947;-81
2023/05/30 01:44:47;;;;;;;;;;;19.00;48.80;;;;;;5060790;28;19909;-81
2023/05/30 01:47:16;;;;;;;;;;;18.90;48.40;;;;;;5077656;28;19939;-81
2023/05/30 01:49:55;;;;;;;;;;;19.00;48.50;;;;;;5060308;28;19909;-81
2023/05/30 01:52:24;;;;;;;;;;;18.90;48.50;;;;;;5060190;28;19915;-82
2023/05/30 01:54:51;;;;;;;;;;;18.90;48.50;;;;;;5077310;28;19909;-82
2023/05/30 01:57:18;;;;;;;;;;;18.90;48.50;;;;;;5059969;28;19923;-82
2023/05/30 01:59:44;;;;;;;;;;;18.80;48.50;;;;;;5060065;28;19915;-81
2023/05/30 02:02:12;;;;;;;;;;;18.90;48.50;;;;;;5061872;28;19999;-81
2023/05/30 02:04:38;;;;;;;;;;;18.80;48.50;;;;;;5061572;28;20286;-81
2023/05/30 02:07:04;;;;;;;;;;;18.80;48.50;;;;;;5062008;28;19909;-81
2023/05/30 02:09:31;;;;;;;;;;;18.80;48.60;;;;;;5061701;28;19917;-81
2023/05/30 02:11:56;;;;;;;;;;;18.80;48.60;;;;;;5079139;28;19963;-80
2023/05/30 02:14:22;;;;;;;;;;;18.80;48.60;;;;;;5078818;28;19916;-80
2023/05/30 02:16:48;;;;;;;;;;;18.80;48.60;;;;;;5079610;28;19908;-80
2023/05/30 02:19:23;;;;;;;;;;;18.80;48.60;;;;;;5078022;28;19919;-80
2023/05/30 02:21:49;;;;;;;;;;;18.80;48.60;;;;;;5061834;28;19923;-80
2023/05/30 02:24:14;;;;;;;;;;;18.70;48.60;;;;;;5061628;28;19952;-80
2023/05/30 02:26:40;;;;;;;;;;;18.70;48.70;;;;;;5078946;28;19909;-80
2023/05/30 02:29:06;;;;;;;;;;;18.70;48.70;;;;;;5078675;28;19927;-80
2023/05/30 02:31:31;;;;;;;;;;;18.70;48.70;;;;;;5061520;28;20250;-80
2023/05/30 02:33:57;;;;;;;;;;;18.60;48.70;;;;;;5078806;28;19909;-81
2023/05/30 02:36:23;;;;;;;;;;;18.70;48.80;;;;;;5061606;28;19908;-80
2023/05/30 02:38:48;;;;;;;;;;;18.60;48.80;;;;;;5060503;28;20300;-80
2023/05/30 02:41:14;;;;;;;;;;;18.60;48.80;;;;;;5061391;28;19908;-80
2023/05/30 02:43:40;;;;;;;;;;;18.60;48.80;;;;;;5060007;28;20440;-81
2023/05/30 02:46:06;;;;;;;;;;;18.60;48.80;;;;;;5061122;28;19912;-80
2023/05/30 02:48:31;;;;;;;;;;;18.60;48.80;;;;;;5061099;28;19919;-80
2023/05/30 02:50:57;;;;;;;;;;;18.60;48.90;;;;;;5060829;28;19909;-80
2023/05/30 02:53:36;;;;;;;;;;;18.50;48.90;;;;;;5077465;28;19908;-80
2023/05/30 02:56:02;;;;;;;;;;;18.50;48.90;;;;;;5077798;28;19916;-80
2023/05/30 02:58:27;;;;;;;;;;;18.50;48.90;;;;;;5060466;28;19962;-80
2023/05/30 03:00:53;;;;;;;;;;;18.50;48.90;;;;;;5060271;28;19909;-80
2023/05/30 03:03:21;;;;;;;;;;;18.50;48.90;;;;;;5059891;28;19959;-81
2023/05/30 03:05:49;;;;;;;;;;;18.50;48.90;;;;;;5076888;28;19997;-81
2023/05/30 03:08:14;;;;;;;;;;;18.50;49.00;;;;;;5060298;28;19909;-81
2023/05/30 03:10:40;;;;;;;;;;;18.50;49.00;;;;;;5045150;28;19916;-80
2023/05/30 03:13:07;;;;;;;;;;;18.50;49.00;;;;;;5040677;28;19948;-81
2023/05/30 03:15:33;;;;;;;;;;;18.40;49.00;;;;;;5058023;28;20008;-80
2023/05/30 03:17:58;;;;;;;;;;;18.40;49.00;;;;;;5040836;28;19971;-80
2023/05/30 03:20:25;;;;;;;;;;;18.40;49.00;;;;;;5040293;28;19927;-80
2023/05/30 03:23:01;;;;;;;;;;;18.40;49.00;;;;;;5057596;28;20193;-80
2023/05/30 03:25:26;;;;;;;;;;;18.40;49.00;;;;;;5040511;28;20146;-80
2023/05/30 03:27:52;;;;;;;;;;;18.40;49.00;;;;;;5061137;28;20007;-81
2023/05/30 03:30:18;;;;;;;;;;;18.40;49.00;;;;;;5060517;28;19974;-80
2023/05/30 03:32:44;;;;;;;;;;;18.40;49.00;;;;;;5043633;28;19908;-80
2023/05/30 03:35:09;;;;;;;;;;;18.40;49.00;;;;;;5061004;28;19972;-80
2023/05/30 03:37:35;;;;;;;;;;;18.40;49.00;;;;;;5043633;28;20369;-81
2023/05/30 03:40:01;;;;;;;;;;;18.30;48.90;;;;;;5042931;28;20168;-80
2023/05/30 03:42:27;;;;;;;;;;;18.30;49.00;;;;;;5043041;28;19909;-80
2023/05/30 03:44:52;;;;;;;;;;;18.30;48.90;;;;;;5041567;28;19920;-80
2023/05/30 03:47:18;;;;;;;;;;;18.30;49.00;;;;;;5059825;28;19909;-80
2023/05/30 03:49:43;;;;;;;;;;;18.30;48.90;;;;;;5043180;28;19909;-80
2023/05/30 03:52:10;;;;;;;;;;;18.30;48.90;;;;;;5042785;28;19915;-80
2023/05/30 03:54:35;;;;;;;;;;;18.30;48.90;;;;;;5059764;28;19995;-80
2023/05/30 03:57:01;;;;;;;;;;;18.30;48.90;;;;;;5060181;28;19952;-80
2023/05/30 03:59:27;;;;;;;;;;;18.30;48.90;;;;;;5042639;28;19909;-80
2023/05/30 04:01:59;;;;;;;;;;;18.30;48.90;;;;;;5060748;28;19909;-80
2023/05/30 04:04:25;;;;;;;;;;;18.30;48.90;;;;;;5060581;28;20194;-79
2023/05/30 04:06:50;;;;;;;;;;;18.30;48.90;;;;;;5043223;28;19912;-79
2023/05/30 04:09:16;;;;;;;;;;;18.20;48.90;;;;;;5060138;28;19916;-81
2023/05/30 04:11:42;;;;;;;;;;;18.20;48.90;;;;;;5042204;28;20317;-79
2023/05/30 04:14:07;;;;;;;;;;;18.20;48.90;;;;;;5042247;28;19924;-80
2023/05/30 04:16:33;;;;;;;;;;;18.20;48.80;;;;;;5043053;28;19920;-80
2023/05/30 04:18:59;;;;;;;;;;;18.20;48.90;;;;;;5041565;28;20180;-80
2023/05/30 04:21:26;;;;;;;;;;;18.20;49.20;;;;;;5042391;28;19909;-80
2023/05/30 04:23:52;;;;;;;;;;;18.20;48.80;;;;;;5041118;28;19908;-81
2023/05/30 04:26:18;;;;;;;;;;;18.20;48.80;;;;;;5040818;28;19927;-80
2023/05/30 04:28:43;;;;;;;;;;;18.20;48.90;;;;;;5040500;28;19908;-80
2023/05/30 04:31:10;;;;;;;;;;;18.20;48.80;;;;;;5059160;28;19908;-80
2023/05/30 04:33:37;;;;;;;;;;;18.20;48.80;;;;;;5074269;28;20007;-80
2023/05/30 04:36:04;;;;;;;;;;;18.20;48.80;;;;;;5041651;28;19909;-80
2023/05/30 04:38:32;;;;;;;;;;;18.20;48.80;;;;;;5040868;28;19913;-80
2023/05/30 04:41:00;;;;;;;;;;;18.20;48.80;;;;;;5058246;28;19936;-80
2023/05/30 04:43:26;;;;;;;;;;;18.20;48.80;;;;;;5057749;28;19924;-80
2023/05/30 04:45:51;;;;;;;;;;;18.20;48.80;;;;;;5039714;28;19909;-80
2023/05/30 04:48:17;;;;;;;;;;;18.20;48.80;;;;;;5040050;28;19935;-80
2023/05/30 04:50:46;;;;;;;;;;;18.20;48.80;;;;;;5058113;28;19909;-80
2023/05/30 04:53:18;;;;;;;;;;;18.20;48.80;;;;;;5040520;28;20393;-80
2023/05/30 04:55:44;;;;;;;;;;;18.20;48.70;;;;;;5040045;28;20003;-80
2023/05/30 04:58:13;;;;;;;;;;;18.20;48.70;;;;;;5056995;28;19913;-80
2023/05/30 05:00:58;;;;;;;;;;;18.20;48.70;;;;;;5058979;28;19980;-80
2023/05/30 05:03:24;;;;;;;;;;;18.20;48.70;;;;;;5040227;28;19909;-80
2023/05/30 05:05:50;;;;;;;;;;;18.20;48.70;;;;;;5039551;28;20161;-80
2023/05/30 05:08:16;;;;;;;;;;;18.30;48.70;;;;;;5039621;28;19920;-79
2023/05/30 05:10:41;;;;;;;;;;;18.20;48.60;;;;;;5039893;28;19935;-80
2023/05/30 05:13:07;;;;;;;;;;;18.20;48.60;;;;;;5039309;28;19931;-80
2023/05/30 05:15:37;;;;;;;;;;;18.20;48.60;;;;;;5039855;28;19909;-80
2023/05/30 05:18:04;;;;;;;;;;;18.30;48.70;;;;;;5056078;28;19913;-80
2023/05/30 05:20:29;;;;;;;;;;;18.30;48.60;;;;;;5055616;28;19917;-79
2023/05/30 05:22:55;;;;;;;;;;;18.30;48.60;;;;;;5039775;28;19973;-80
2023/05/30 05:25:21;;;;;;;;;;;18.30;48.60;;;;;;5040309;28;19916;-79
2023/05/30 05:27:48;;;;;;;;;;;18.30;48.50;;;;;;5040292;28;20348;-80
2023/05/30 05:30:14;;;;;;;;;;;18.30;48.50;;;;;;5055877;28;20438;-79
2023/05/30 05:32:40;;;;;;;;;;;18.30;48.40;;;;;;5057591;28;19909;-80
2023/05/30 05:35:07;;;;;;;;;;;18.40;48.50;;;;;;5039374;28;19913;-80
2023/05/30 05:37:35;;;;;;;;;;;18.40;48.50;;;;;;5063981;28;19913;-80
2023/05/30 05:40:04;;;;;;;;;;;18.40;48.40;;;;;;5038823;28;20176;-80
2023/05/30 05:42:30;;;;;;;;;;;18.40;48.40;;;;;;5038801;28;19909;-80
2023/05/30 05:44:56;;;;;;;;;;;18.40;48.40;;;;;;5054250;28;19973;-81
2023/05/30 05:47:22;;;;;;;;;;;18.40;48.40;;;;;;5036264;28;19916;-81
2023/05/30 05:49:47;;;;;;;;;;;18.40;48.40;;;;;;5034866;28;19983;-81
2023/05/30 05:52:13;;;;;;;;;;;18.50;48.40;;;;;;5054286;28;19909;-81
2023/05/30 05:54:38;;;;;;;;;;;18.50;48.40;;;;;;5037477;28;19909;-81
2023/05/30 05:57:06;;;;;;;;;;;18.50;48.30;;;;;;5036537;28;19913;-81
2023/05/30 05:59:31;;;;;;;;;;;18.50;48.30;;;;;;5036797;28;19908;-80
2023/05/30 06:01:57;;;;;;;;;;;18.50;48.30;;;;;;5038690;28;19917;-81
2023/05/30 06:04:22;;;;;;;;;;;18.60;48.30;;;;;;5038096;28;19909;-81
2023/05/30 06:06:48;;;;;;;;;;;18.60;48.30;;;;;;5037104;28;19919;-81
2023/05/30 06:09:14;;;;;;;;;;;18.60;48.20;;;;;;5038939;28;19923;-82
2023/05/30 06:11:39;;;;;;;;;;;18.70;48.20;;;;;;5056946;28;19909;-81
2023/05/30 06:14:05;;;;;;;;;;;18.70;48.20;;;;;;5056172;28;19916;-81
2023/05/30 06:16:33;;;;;;;;;;;18.70;48.10;;;;;;5056898;28;19908;-81
2023/05/30 06:18:59;;;;;;;;;;;18.80;48.10;;;;;;5072934;28;19912;-82
2023/05/30 06:21:24;;;;;;;;;;;18.80;48.10;;;;;;5056925;28;19970;-81
2023/05/30 06:23:51;;;;;;;;;;;18.80;48.10;;;;;;5056954;28;19908;-81
2023/05/30 06:26:17;;;;;;;;;;;18.90;48.00;;;;;;5056877;28;19935;-82
2023/05/30 06:28:42;;;;;;;;;;;19.00;48.00;;;;;;5055279;28;19908;-81
2023/05/30 06:31:08;;;;;;;;;;;19.00;47.90;;;;;;5055524;28;19916;-80
2023/05/30 06:33:34;;;;;;;;;;;19.00;47.90;;;;;;5053990;28;19940;-81
2023/05/30 06:36:00;;;;;;;;;;;19.00;47.90;;;;;;5054811;28;20469;-81
2023/05/30 06:38:25;;;;;;;;;;;19.00;47.80;;;;;;5071385;28;20113;-82
2023/05/30 06:40:51;;;;;;;;;;;19.10;47.80;;;;;;5053594;28;20213;-80
2023/05/30 06:43:17;;;;;;;;;;;19.10;47.80;;;;;;5053763;28;19955;-81
2023/05/30 06:45:43;;;;;;;;;;;19.30;47.80;;;;;;5052759;28;19969;-81
2023/05/30 06:48:08;;;;;;;;;;;19.30;47.60;;;;;;5051296;28;20007;-81
2023/05/30 06:50:34;;;;;;;;;;;19.40;47.40;;;;;;5054378;28;19999;-81
2023/05/30 06:53:00;;;;;;;;;;;19.50;47.30;;;;;;5054734;28;19912;-81
2023/05/30 06:55:25;;;;;;;;;;;19.70;47.20;;;;;;5072613;28;19917;-81
2023/05/30 06:57:54;;;;;;;;;;;19.80;47.00;;;;;;5056293;28;19912;-79
2023/05/30 07:00:22;;;;;;;;;;;20.00;47.00;;;;;;5072277;28;20180;-79
2023/05/30 07:02:47;;;;;;;;;;;20.10;46.80;;;;;;5058277;28;19916;-79
2023/05/30 07:05:13;;;;;;;;;;;20.20;46.60;;;;;;5075771;28;19909;-79
2023/05/30 07:07:39;;;;;;;;;;;20.40;46.50;;;;;;5058910;28;19909;-80
2023/05/30 07:10:06;;;;;;;;;;;20.80;46.30;;;;;;5049880;28;19951;-80
2023/05/30 07:12:32;;;;;;;;;;;21.20;45.90;;;;;;5054074;28;19963;-80
2023/05/30 07:14:58;;;;;;;;;;;21.70;45.40;;;;;;5036373;28;19909;-79
2023/05/30 07:17:24;;;;;;;;;;;22.00;45.00;;;;;;5036982;28;19978;-80
2023/05/30 07:19:50;;;;;;;;;;;22.50;44.60;;;;;;5054433;28;19909;-80
2023/05/30 07:22:15;;;;;;;;;;;22.80;44.20;;;;;;5038066;28;19920;-79
2023/05/30 07:24:41;;;;;;;;;;;23.10;43.90;;;;;;5054337;28;19936;-80
2023/05/30 07:27:07;;;;;;;;;;;23.30;43.60;;;;;;5036258;28;19932;-81
2023/05/30 07:29:33;;;;;;;;;;;23.60;43.40;;;;;;5055036;28;19909;-82
2023/05/30 07:31:58;;;;;;;;;;;23.90;43.10;;;;;;5038962;28;19920;-81
2023/05/30 07:34:24;;;;;;;;;;;24.10;42.90;;;;;;5038721;28;19908;-82
2023/05/30 07:36:50;;;;;;;;;;;24.20;42.80;;;;;;5039287;28;19909;-82
2023/05/30 07:39:16;;;;;;;;;;;24.40;42.80;;;;;;5038183;28;19917;-81
2023/05/30 07:41:41;;;;;;;;;;;24.60;42.60;;;;;;5037951;28;19919;-82
2023/05/30 07:44:07;;;;;;;;;;;24.80;42.40;;;;;;5036459;28;20562;-81
2023/05/30 07:46:32;;;;;;;;;;;24.90;42.20;;;;;;5037766;28;19916;-82
2023/05/30 07:48:58;;;;;;;;;;;25.20;42.20;;;;;;5055387;28;19947;-80
2023/05/30 07:51:23;;;;;;;;;;;25.40;42.10;;;;;;5037356;28;20003;-82
2023/05/30 07:53:49;;;;;;;;;;;25.60;42.00;;;;;;5037090;28;19909;-82
2023/05/30 07:56:15;;;;;;;;;;;25.80;41.90;;;;;;5052875;28;19917;-81
2023/05/30 07:58:40;;;;;;;;;;;25.90;41.70;;;;;;5053912;28;20283;-82
2023/05/30 08:01:06;;;;;;;;;;;26.00;41.80;;;;;;5035357;28;19912;-82
2023/05/30 08:03:32;;;;;;;;;;;26.10;41.70;;;;;;5052628;28;19974;-81
2023/05/30 08:05:57;;;;;;;;;;;26.20;41.60;;;;;;5051616;28;19909;-81
2023/05/30 08:08:24;;;;;;;;;;;26.30;41.50;;;;;;5034917;28;20011;-81
2023/05/30 08:10:51;;;;;;;;;;;26.40;41.40;;;;;;5069434;28;19917;-81
2023/05/30 08:13:17;;;;;;;;;;;26.50;41.50;;;;;;5055169;28;19912;-81
2023/05/30 08:15:43;;;;;;;;;;;26.60;41.50;;;;;;5055426;28;20309;-81
2023/05/30 08:18:09;;;;;;;;;;;26.80;41.40;;;;;;5056133;28;19913;-82
2023/05/30 08:20:35;;;;;;;;;;;26.90;41.20;;;;;;5055442;28;19908;-81
2023/05/30 08:23:01;;;;;;;;;;;27.10;41.20;;;;;;5056661;28;19920;-81
2023/05/30 08:25:32;;;;;;;;;;;27.20;41.10;;;;;;5057381;28;19909;-82
2023/05/30 08:27:59;;;;;;;;;;;27.30;41.10;;;;;;5076110;28;19916;-82
2023/05/30 08:30:27;;;;;;;;;;;27.50;41.00;;;;;;5075775;28;19915;-81
2023/05/30 08:32:53;;;;;;;;;;;27.60;40.80;;;;;;5075718;28;20337;-81
2023/05/30 08:35:19;;;;;;;;;;;27.70;40.80;;;;;;5057393;28;19909;-81
2023/05/30 08:37:45;;;;;;;;;;;27.80;40.80;;;;;;5073725;28;19913;-81
2023/05/30 08:40:12;;;;;;;;;;;28.00;40.70;;;;;;5073405;28;19908;-81
2023/05/30 08:42:38;;;;;;;;;;;28.10;40.60;;;;;;5072363;28;19920;-81
2023/05/30 08:45:05;;;;;;;;;;;28.20;40.40;;;;;;5053705;28;19970;-81
2023/05/30 08:47:34;;;;;;;;;;;28.30;40.40;;;;;;5053131;28;19998;-82
2023/05/30 08:50:03;;;;;;;;;;;28.30;40.40;;;;;;5055675;28;19922;-81
2023/05/30 08:52:31;;;;;;;;;;;28.50;40.40;;;;;;5058263;28;19897;-81
2023/05/30 08:55:16;;;;;;;;;;;28.60;40.40;;;;;;5057013;28;19912;-81
2023/05/30 08:57:57;;;;;;;;;;;28.60;40.30;;;;;;5069866;28;20264;-81
2023/05/30 09:00:23;;;;;;;;;;;28.70;40.20;;;;;;5071969;28;19909;-82
2023/05/30 09:02:55;;;;;;;;;;;28.80;40.20;;;;;;5053754;28;19917;-81
2023/05/30 09:05:21;;;;;;;;;;;28.70;40.20;;;;;;5052693;28;19912;-81
2023/05/30 09:07:48;;;;;;;;;;;28.70;40.20;;;;;;5053024;28;20387;-80
2023/05/30 09:10:15;;;;;;;;;;;28.80;40.20;;;;;;5043247;28;19917;-81
2023/05/30 09:12:43;;;;;;;;;;;28.90;40.20;;;;;;5034460;28;19909;-80
2023/05/30 09:15:09;;;;;;;;;;;29.10;40.10;;;;;;5033937;28;19908;-82
2023/05/30 09:17:35;;;;;;;;;;;29.10;40.10;;;;;;5034900;28;19914;-82
2023/05/30 09:20:01;;;;;;;;;;;29.10;40.10;;;;;;5035088;28;20291;-82
2023/05/30 09:22:27;;;;;;;;;;;29.10;40.10;;;;;;5036015;28;20039;-82
2023/05/30 09:25:00;;;;;;;;;;;28.90;40.10;;;;;;5032047;28;19988;-81
2023/05/30 09:27:26;;;;;;;;;;;28.70;40.20;;;;;;5052333;28;19909;-80
2023/05/30 09:29:52;;;;;;;;;;;28.40;40.40;;;;;;5035096;28;19909;-80
2023/05/30 09:32:18;;;;;;;;;;;28.00;40.50;;;;;;5033890;28;19919;-80
2023/05/30 09:34:54;;;;;;;;;;;27.60;40.70;;;;;;5034397;28;19959;-80
2023/05/30 09:37:20;;;;;;;;;;;27.30;41.00;;;;;;5051613;28;19917;-80
2023/05/30 09:40:08;;;;;;;;;;;27.00;41.20;;;;;;5036508;28;19919;-81
2023/05/30 09:42:44;;;;;;;;;;;26.70;41.40;;;;;;5034960;28;19944;-80
2023/05/30 09:45:10;;;;;;;;;;;26.50;41.60;;;;;;5034864;28;20329;-80
2023/05/30 09:47:46;;;;;;;;;;;26.30;41.90;;;;;;5051907;28;19908;-80
2023/05/30 09:50:13;;;;;;;;;;;26.10;42.00;;;;;;5035436;28;19908;-80
2023/05/30 09:52:40;;;;;;;;;;;26.00;42.10;;;;;;5053101;28;19991;-80
2023/05/30 09:55:06;;;;;;;;;;;25.80;42.20;;;;;;5052169;28;19962;-80
2023/05/30 09:57:36;;;;;;;;;;;25.80;42.50;;;;;;5034058;28;19912;-80
2023/05/30 10:03:05;;;;;;;;;;;25.60;42.60;;;;;;5051625;28;19920;-80
2023/05/30 10:05:30;;;;;;;;;;;25.60;42.70;;;;;;5033791;28;19909;-80
2023/05/30 10:07:56;;;;;;;;;;;25.50;42.80;;;;;;5032830;28;19951;-80
2023/05/30 10:10:22;;;;;;;;;;;25.40;42.90;;;;;;5045634;28;19916;-80
2023/05/30 10:12:51;;;;;;;;;;;25.40;42.90;;;;;;5053160;28;20094;-80
2023/05/30 10:15:18;;;;;;;;;;;25.40;43.10;;;;;;5070760;28;19915;-80
2023/05/30 10:17:53;;;;;;;;;;;25.30;43.10;;;;;;5071695;28;19920;-80
2023/05/30 10:20:20;;;;;;;;;;;25.20;43.10;;;;;;5054679;28;19956;-80
2023/05/30 10:22:46;;;;;;;;;;;25.20;43.20;;;;;;5052945;28;20013;-80
2023/05/30 10:25:12;;;;;;;;;;;25.10;43.30;;;;;;5055114;28;19908;-80
2023/05/30 10:27:42;;;;;;;;;;;25.00;43.30;;;;;;5055719;28;19909;-80
2023/05/30 10:30:08;;;;;;;;;;;24.90;43.50;;;;;;5055044;28;19912;-80
2023/05/30 10:32:36;;;;;;;;;;;24.90;43.70;;;;;;5053097;28;19908;-80
2023/05/30 10:35:08;;;;;;;;;;;24.80;43.80;;;;;;5068758;28;19913;-80
2023/05/30 10:37:35;;;;;;;;;;;24.70;43.80;;;;;;5052054;28;19924;-80
2023/05/30 10:40:27;;;;;;;;;;;24.60;43.80;;;;;;5051003;28;20384;-80
2023/05/30 10:42:58;;;;;;;;;;;24.60;44.00;;;;;;5069241;28;19908;-80
2023/05/30 10:45:38;;;;;;;;;;;24.50;44.00;;;;;;5051313;28;19904;-80
2023/05/30 10:48:16;;;;;;;;;;;24.40;44.20;;;;;;5068535;28;19909;-80
2023/05/30 10:50:44;;;;;;;;;;;24.40;44.20;;;;;;5052939;28;19908;-80
2023/05/30 10:53:18;;;;;;;;;;;24.30;44.30;;;;;;5068991;28;19919;-80
2023/05/30 10:55:48;;;;;;;;;;;24.30;44.40;;;;;;5050990;28;19950;-80
2023/05/30 10:58:33;;;;;;;;;;;24.20;44.50;;;;;;5052372;28;19912;-80
2023/05/30 11:01:25;;;;;;;;;;;24.10;44.50;;;;;;5052637;28;20010;-81
2023/05/30 11:04:13;;;;;;;;;;;24.10;44.60;;;;;;5065768;28;20190;-80
2023/05/30 11:06:50;;;;;;;;;;;24.10;44.80;;;;;;5058124;28;19917;-80
2023/05/30 11:09:17;;;;;;;;;;;24.10;44.80;;;;;;5069646;28;20270;-80
2023/05/30 11:11:44;;;;;;;;;;;24.00;44.80;;;;;;5068900;28;19991;-80
2023/05/30 11:14:10;;;;;;;;;;;24.00;45.10;;;;;;5049792;28;20013;-80
2023/05/30 11:16:55;;;;;;;;;;;23.90;45.10;;;;;;5051606;28;19920;-79
2023/05/30 11:19:38;;;;;;;;;;;23.90;45.10;;;;;;5053327;28;19943;-80
2023/05/30 11:22:08;;;;;;;;;;;23.90;45.20;;;;;;5054695;28;20520;-80
2023/05/30 11:24:34;;;;;;;;;;;23.80;45.20;;;;;;5054937;28;20007;-80
2023/05/30 11:27:07;;;;;;;;;;;23.80;45.30;;;;;;5052873;28;19930;-80
2023/05/30 11:29:39;;;;;;;;;;;23.80;45.30;;;;;;5068984;28;19909;-81
2023/05/30 11:32:06;;;;;;;;;;;23.70;45.40;;;;;;5051365;28;19955;-80
2023/05/30 11:34:32;;;;;;;;;;;23.70;45.50;;;;;;5053624;28;20011;-80
2023/05/30 11:36:58;;;;;;;;;;;23.70;45.50;;;;;;5071024;28;20276;-80
2023/05/30 11:39:26;;;;;;;;;;;23.70;45.60;;;;;;5054369;28;19935;-79
2023/05/30 11:41:52;;;;;;;;;;;23.60;45.50;;;;;;5070080;28;19923;-80
2023/05/30 11:44:20;;;;;;;;;;;23.60;45.60;;;;;;5053763;28;19916;-80
2023/05/30 11:47:07;;;;;;;;;;;23.60;45.70;;;;;;5054277;28;19919;-80
2023/05/30 11:49:33;;;;;;;;;;;23.60;45.70;;;;;;5057638;28;19972;-80
2023/05/30 11:51:59;;;;;;;;;;;23.50;45.70;;;;;;5057135;28;19909;-80
2023/05/30 11:54:24;;;;;;;;;;;23.50;45.70;;;;;;5057316;28;19909;-81
2023/05/30 11:56:52;;;;;;;;;;;23.50;45.80;;;;;;5056986;28;19923;-80
2023/05/30 11:59:19;;;;;;;;;;;23.40;45.80;;;;;;5058254;28;20218;-80
2023/05/30 12:01:49;;;;;;;;;;;23.40;45.80;;;;;;5055768;28;19908;-80
2023/05/30 12:04:16;;;;;;;;;;;23.40;45.90;;;;;;5072688;28;19979;-79
2023/05/30 12:06:45;;;;;;;;;;;23.40;45.90;;;;;;5071703;28;19973;-80
2023/05/30 12:09:11;;;;;;;;;;;23.40;46.00;;;;;;5073200;28;20295;-79
2023/05/30 12:11:37;;;;;;;;;;;23.30;46.00;;;;;;5071236;28;19913;-80
2023/05/30 12:14:02;;;;;;;;;;;23.30;46.10;;;;;;5056163;28;19920;-80
2023/05/30 12:16:30;;;;;;;;;;;23.30;46.20;;;;;;5076380;28;19915;-80
2023/05/30 12:18:57;;;;;;;;;;;23.30;46.10;;;;;;5072534;28;19919;-80
2023/05/30 12:21:23;;;;;;;;;;;23.30;46.20;;;;;;5054667;28;20201;-79
2023/05/30 12:23:48;;;;;;;;;;;23.20;46.10;;;;;;5054310;28;19913;-80
2023/05/30 12:26:17;;;;;;;;;;;23.20;46.20;;;;;;5056273;28;19936;-80
2023/05/30 12:28:45;;;;;;;;;;;23.20;46.20;;;;;;5058054;28;19916;-80
2023/05/30 12:31:19;;;;;;;;;;;23.20;46.30;;;;;;5058794;28;19944;-80
2023/05/30 12:33:45;;;;;;;;;;;23.10;46.20;;;;;;5075614;28;20011;-80
2023/05/30 12:36:11;;;;;;;;;;;23.10;46.20;;;;;;5056914;28;19958;-80
2023/05/30 12:38:37;;;;;;;;;;;23.10;46.40;;;;;;5055749;28;19912;-80
2023/05/30 12:41:05;;;;;;;;;;;23.10;46.40;;;;;;5071549;28;19908;-80
2023/05/30 12:43:35;;;;;;;;;;;23.10;46.40;;;;;;5053353;28;19915;-80
2023/05/30 12:46:03;;;;;;;;;;;23.10;46.50;;;;;;5072308;28;20381;-80
2023/05/30 12:48:28;;;;;;;;;;;23.10;46.50;;;;;;5057755;28;20228;-80
2023/05/30 12:50:54;;;;;;;;;;;23.10;46.60;;;;;;5056493;28;19917;-80
2023/05/30 12:53:20;;;;;;;;;;;23.00;46.60;;;;;;5071234;28;19916;-82
2023/05/30 12:55:46;;;;;;;;;;;23.00;46.70;;;;;;5053199;28;20011;-81
2023/05/30 12:58:11;;;;;;;;;;;23.00;46.70;;;;;;5069512;28;19912;-82
2023/05/30 13:00:37;;;;;;;;;;;23.00;46.80;;;;;;5072212;28;19912;-82
2023/05/30 13:03:06;;;;;;;;;;;23.00;46.80;;;;;;5071772;28;20523;-82
2023/05/30 13:05:32;;;;;;;;;;;23.00;46.90;;;;;;5054422;28;19919;-82
2023/05/30 13:07:57;;;;;;;;;;;23.00;47.00;;;;;;5053843;28;19908;-82
2023/05/30 13:10:23;;;;;;;;;;;23.00;47.00;;;;;;5043743;28;20272;-82
2023/05/30 13:12:48;;;;;;;;;;;23.00;47.00;;;;;;5036643;28;19909;-82
2023/05/30 13:15:14;;;;;;;;;;;23.00;47.10;;;;;;5035136;28;19909;-80
2023/05/30 13:17:40;;;;;;;;;;;22.90;47.10;;;;;;5052180;28;19917;-81
2023/05/30 13:20:06;;;;;;;;;;;22.90;47.10;;;;;;5033782;28;20394;-80
2023/05/30 13:22:32;;;;;;;;;;;22.90;47.20;;;;;;5032605;28;19916;-81
2023/05/30 13:24:58;;;;;;;;;;;22.90;47.20;;;;;;5051768;28;19917;-81
2023/05/30 13:27:24;;;;;;;;;;;22.90;47.20;;;;;;5034266;28;19916;-81
2023/05/30 13:29:50;;;;;;;;;;;22.90;47.30;;;;;;5033651;28;19916;-81
2023/05/30 13:32:16;;;;;;;;;;;22.90;47.30;;;;;;5051468;28;19908;-81
2023/05/30 13:34:41;;;;;;;;;;;22.90;47.40;;;;;;5034284;28;20342;-81
2023/05/30 13:37:07;;;;;;;;;;;22.90;47.30;;;;;;5033056;28;19970;-80
2023/05/30 13:39:33;;;;;;;;;;;22.90;47.40;;;;;;5033217;28;20503;-82
2023/05/30 13:41:58;;;;;;;;;;;22.90;47.40;;;;;;5031575;28;19912;-81
2023/05/30 13:44:24;;;;;;;;;;;22.90;47.50;;;;;;5032807;28;19970;-81
2023/05/30 13:46:50;;;;;;;;;;;22.90;47.50;;;;;;5032505;28;19916;-82
2023/05/30 13:49:15;;;;;;;;;;;22.90;47.60;;;;;;5049788;28;20366;-82
2023/05/30 13:51:42;;;;;;;;;;;22.90;47.60;;;;;;5034191;28;19909;-82
2023/05/30 13:54:09;;;;;;;;;;;22.90;47.60;;;;;;5033179;28;19908;-83
2023/05/30 13:56:35;;;;;;;;;;;22.90;47.60;;;;;;5033161;28;19916;-82
2023/05/30 13:59:00;;;;;;;;;;;22.90;47.60;;;;;;5033608;28;19912;-82
2023/05/30 14:01:30;;;;;;;;;;;22.80;47.60;;;;;;5034163;28;19909;-82
2023/05/30 14:03:55;;;;;;;;;;;22.80;47.70;;;;;;5034400;28;19909;-82
2023/05/30 14:06:21;;;;;;;;;;;22.90;47.70;;;;;;5034116;28;19916;-82
2023/05/30 14:08:46;;;;;;;;;;;22.90;47.70;;;;;;5050905;28;19909;-82
2023/05/30 14:11:13;;;;;;;;;;;22.80;47.70;;;;;;5049479;28;19917;-82
2023/05/30 14:13:39;;;;;;;;;;;22.80;47.70;;;;;;5068600;28;19955;-82
2023/05/30 14:16:05;;;;;;;;;;;22.80;47.80;;;;;;5052160;28;19909;-82
2023/05/30 14:18:31;;;;;;;;;;;22.90;47.80;;;;;;5074467;28;19913;-82
2023/05/30 14:20:57;;;;;;;;;;;22.80;47.80;;;;;;5050953;28;19908;-82